createdAt,value
2022-09-26T00:04:50.526Z,69.53
2022-09-26T00:09:55.776Z,69.24
2022-09-26T00:14:59.059Z,69.13
2022-09-26T00:20:02.376Z,68.98
2022-09-26T00:25:06.552Z,68.94
2022-09-26T00:30:11.803Z,68.99
2022-09-26T00:35:14.996Z,68.88
2022-09-26T00:40:18.140Z,68.94
2022-09-26T00:45:24.533Z,68.86
2022-09-26T00:50:41.629Z,69.04
2022-09-26T00:55:59.006Z,69.00
2022-09-26T01:01:02.778Z,69.15
2022-09-26T01:06:06.630Z,69.16
2022-09-26T01:11:16.660Z,69.30
2022-09-26T01:16:20.513Z,69.21
2022-09-26T01:21:48.341Z,69.08
2022-09-26T01:27:18.339Z,69.05
2022-09-26T01:33:14.532Z,69.12
2022-09-26T01:38:43.255Z,69.10
2022-09-26T01:43:53.936Z,69.07
2022-09-26T01:49:34.458Z,69.24
2022-09-26T01:54:53.108Z,69.34
2022-09-26T02:00:03.281Z,69.07
2022-09-26T02:05:16.764Z,68.89
2022-09-26T02:10:31.238Z,68.94
2022-09-26T02:15:37.343Z,68.70
2022-09-26T02:20:49.432Z,68.54
2022-09-26T02:25:52.542Z,69.25
2022-09-26T02:30:56.638Z,69.35
2022-09-26T02:35:59.842Z,69.82
2022-09-26T02:41:14.889Z,69.88
2022-09-26T02:47:05.293Z,69.61
2022-09-26T02:52:47.607Z,69.64
2022-09-26T02:58:39.045Z,69.79
2022-09-26T03:04:00.218Z,69.80
2022-09-26T03:09:06.114Z,69.71
2022-09-26T03:14:10.886Z,69.90
2022-09-26T03:19:35.717Z,69.81
2022-09-26T03:24:42.667Z,69.64
2022-09-26T03:29:46.101Z,70.28
2022-09-26T03:34:49.152Z,70.32
2022-09-26T03:39:52.522Z,70.13
2022-09-26T03:44:56.159Z,70.15
2022-09-26T03:49:59.188Z,70.67
2022-09-26T03:55:02.239Z,70.48
2022-09-26T04:00:08.177Z,71.05
2022-09-26T04:05:11.686Z,71.19
2022-09-26T04:10:15.050Z,70.94
2022-09-26T04:15:18.141Z,70.69
2022-09-26T04:20:21.188Z,70.57
2022-09-26T04:25:24.147Z,70.32
2022-09-26T04:30:27.160Z,70.08
2022-09-26T04:35:30.208Z,69.86
2022-09-26T04:40:33.420Z,70.01
2022-09-26T04:45:36.544Z,70.26
2022-09-26T04:50:39.650Z,70.26
2022-09-26T04:55:48.272Z,70.32
2022-09-26T05:00:52.775Z,69.75
2022-09-26T05:05:56.351Z,69.30
2022-09-26T05:10:59.392Z,69.54
2022-09-26T05:16:03.833Z,70.56
2022-09-26T05:21:07.730Z,71.69
2022-09-26T05:26:27.091Z,72.05
2022-09-26T05:31:37.344Z,72.25
2022-09-26T05:36:42.995Z,71.98
2022-09-26T05:41:45.885Z,72.10
2022-09-26T05:46:50.541Z,72.37
2022-09-26T05:51:53.942Z,72.49
2022-09-26T05:56:56.832Z,72.65
2022-09-26T06:01:59.779Z,72.90
2022-09-26T06:07:03.312Z,73.03
2022-09-26T06:12:06.232Z,73.08
2022-09-26T06:17:09.131Z,73.53
2022-09-26T06:22:12.012Z,73.44
2022-09-26T06:27:14.906Z,73.66
2022-09-26T06:32:17.848Z,73.74
2022-09-26T06:37:20.726Z,74.40
2022-09-26T06:42:25.358Z,74.55
2022-09-26T06:47:30.319Z,74.41
2022-09-26T06:52:34.904Z,74.44
2022-09-26T06:57:40.401Z,74.33
2022-09-26T07:02:52.735Z,74.42
2022-09-26T07:07:56.253Z,74.41
2022-09-26T07:13:08.074Z,74.52
2022-09-26T07:18:11.219Z,74.50
2022-09-26T07:23:16.346Z,74.95
2022-09-26T07:28:19.289Z,74.97
2022-09-26T07:33:22.159Z,75.02
2022-09-26T07:38:25.985Z,75.20
2022-09-26T07:44:04.185Z,75.39
2022-09-26T07:49:10.461Z,75.55
2022-09-26T07:54:13.625Z,75.26
2022-09-26T07:59:16.510Z,75.31
2022-09-26T08:04:19.386Z,75.79
2022-09-26T08:09:23.069Z,75.71
2022-09-26T08:14:25.916Z,75.65
2022-09-26T08:19:29.174Z,75.56
2022-09-26T08:24:32.088Z,75.62
2022-09-26T08:29:35.110Z,75.52
2022-09-26T08:34:39.173Z,75.00
2022-09-26T08:39:42.078Z,74.84
2022-09-26T08:45:26.038Z,74.73
2022-09-26T08:50:41.779Z,74.63
2022-09-26T08:55:48.679Z,74.80
2022-09-26T09:00:57.684Z,75.43
2022-09-26T09:06:11.433Z,75.27
2022-09-26T09:11:55.446Z,75.41
2022-09-26T09:17:41.746Z,75.44
2022-09-26T09:23:08.164Z,75.64
2022-09-26T09:28:33.802Z,75.36
2022-09-26T09:33:47.728Z,75.54
2022-09-26T09:38:52.456Z,75.02
2022-09-26T09:44:03.799Z,74.53
2022-09-26T09:49:09.409Z,74.39
2022-09-26T09:54:47.885Z,73.44
2022-09-26T10:00:12.178Z,73.49
2022-09-26T10:05:31.087Z,73.08
2022-09-26T10:11:04.335Z,72.98
2022-09-26T10:16:10.266Z,72.59
2022-09-26T10:21:17.921Z,72.07
2022-09-26T10:26:34.621Z,71.43
2022-09-26T10:31:42.961Z,71.09
2022-09-26T10:36:46.441Z,70.59
2022-09-26T10:41:56.106Z,69.98
2022-09-26T10:47:08.532Z,69.75
2022-09-26T10:52:28.854Z,69.67
2022-09-26T10:57:45.427Z,69.33
2022-09-26T11:02:54.431Z,68.93
2022-09-26T11:07:57.654Z,68.68
2022-09-26T11:13:18.378Z,67.74
2022-09-26T11:18:33.357Z,68.38
2022-09-26T11:23:57.846Z,67.92
2022-09-26T11:29:40.163Z,67.50
2022-09-26T11:34:43.815Z,66.99
2022-09-26T11:40:32.178Z,65.88
2022-09-26T11:46:09.568Z,66.58
2022-09-26T11:51:45.841Z,65.86
2022-09-26T11:57:47.552Z,66.57
2022-09-26T12:03:53.760Z,66.31
2022-09-26T12:09:26.741Z,66.83
2022-09-26T12:14:29.555Z,66.51
2022-09-26T12:20:07.172Z,66.45
2022-09-26T12:25:27.157Z,66.27
2022-09-26T12:30:40.639Z,66.14
2022-09-26T12:36:04.619Z,66.29
2022-09-26T12:41:14.350Z,65.49
2022-09-26T12:47:02.224Z,64.97
2022-09-26T12:52:46.867Z,64.28
2022-09-26T12:57:55.382Z,64.60
2022-09-26T13:03:14.006Z,63.55
2022-09-26T13:08:44.560Z,63.30
2022-09-26T13:14:27.354Z,63.55
2022-09-26T13:19:41.233Z,63.28
2022-09-26T13:24:59.295Z,64.08
2022-09-26T13:30:13.508Z,63.77
2022-09-26T13:35:29.059Z,64.38
2022-09-26T13:40:54.552Z,63.86
2022-09-26T13:46:20.908Z,64.39
2022-09-26T13:51:28.504Z,64.58
2022-09-26T13:56:35.087Z,64.65
2022-09-26T14:01:42.463Z,64.67
2022-09-26T14:07:36.071Z,64.64
2022-09-26T14:13:08.558Z,65.74
2022-09-26T14:18:50.499Z,65.61
2022-09-26T14:24:42.034Z,65.87
2022-09-26T14:30:00.809Z,66.57
2022-09-26T14:35:18.794Z,67.14
2022-09-26T14:40:52.199Z,67.17
2022-09-26T14:46:14.326Z,67.83
2022-09-26T14:51:19.336Z,67.84
2022-09-26T14:56:29.644Z,68.69
2022-09-26T15:01:38.667Z,69.42
2022-09-26T15:06:50.893Z,69.97
2022-09-26T15:11:59.643Z,70.35
2022-09-26T15:17:02.826Z,70.36
2022-09-26T15:22:29.492Z,70.00
2022-09-26T15:27:33.829Z,70.92
2022-09-26T15:32:37.082Z,71.02
2022-09-26T15:37:41.293Z,71.16
2022-09-26T15:43:01.881Z,71.43
2022-09-26T15:48:20.035Z,71.19
2022-09-26T15:53:42.668Z,70.52
2022-09-26T15:58:57.893Z,70.15
2022-09-26T16:04:32.020Z,70.55
2022-09-26T16:09:40.255Z,70.95
2022-09-26T16:15:06.122Z,71.01
2022-09-26T16:20:17.999Z,71.43
2022-09-26T16:25:54.889Z,71.67
2022-09-26T16:30:58.926Z,71.55
2022-09-26T16:36:19.591Z,71.69
2022-09-26T16:41:59.968Z,71.87
2022-09-26T16:47:00.317Z,72.64
2022-09-26T16:52:36.744Z,73.25
2022-09-26T16:58:05.277Z,73.52
2022-09-26T17:03:27.759Z,73.00
2022-09-26T17:08:30.664Z,72.74
2022-09-26T17:13:35.964Z,72.73
2022-09-26T17:18:39.732Z,73.26
2022-09-26T17:23:43.220Z,73.65
2022-09-26T17:28:48.170Z,74.01
2022-09-26T17:33:53.720Z,73.64
2022-09-26T17:39:01.194Z,73.48
2022-09-26T17:44:04.162Z,72.75
2022-09-26T17:49:24.703Z,72.27
2022-09-26T17:54:40.886Z,72.66
2022-09-26T17:59:43.998Z,73.08
2022-09-26T18:04:46.946Z,72.95
2022-09-26T18:09:51.608Z,72.76
2022-09-26T18:14:57.999Z,72.39
2022-09-26T18:20:01.253Z,72.27
2022-09-26T18:25:15.105Z,72.15
2022-09-26T18:30:19.324Z,72.08
2022-09-26T18:35:26.052Z,72.34
2022-09-26T18:40:30.249Z,72.47
2022-09-26T18:45:37.768Z,72.20
2022-09-26T18:50:40.692Z,72.21
2022-09-26T18:56:02.204Z,72.06
2022-09-26T19:01:12.702Z,71.87
2022-09-26T19:06:23.820Z,71.75
2022-09-26T19:11:29.371Z,72.06
2022-09-26T19:16:32.242Z,72.20
2022-09-26T19:21:44.713Z,72.25
2022-09-26T19:26:53.612Z,72.07
2022-09-26T19:31:56.730Z,72.22
2022-09-26T19:37:01.537Z,72.23
2022-09-26T19:42:04.490Z,72.56
2022-09-26T19:47:21.670Z,72.54
2022-09-26T19:52:24.551Z,72.10
2022-09-26T19:57:27.513Z,72.10
2022-09-26T20:02:32.995Z,72.17
2022-09-26T20:07:35.941Z,72.03
2022-09-26T20:12:38.811Z,72.21
2022-09-26T20:17:44.802Z,72.19
2022-09-26T20:22:48.343Z,72.30
2022-09-26T20:27:51.576Z,72.53
2022-09-26T20:32:54.308Z,72.54
2022-09-26T20:38:05.916Z,72.77
2022-09-26T20:43:16.183Z,72.72
2022-09-26T20:48:26.281Z,72.19
2022-09-26T20:53:29.180Z,71.38
2022-09-26T20:58:32.194Z,71.52
2022-09-26T21:03:35.094Z,72.22
2022-09-26T21:08:37.960Z,72.26
2022-09-26T21:13:42.487Z,71.97
2022-09-26T21:18:49.347Z,72.08
2022-09-26T21:23:53.734Z,72.27
2022-09-26T21:28:57.609Z,72.40
2022-09-26T21:34:01.296Z,72.58
2022-09-26T21:39:05.530Z,72.55
2022-09-26T21:44:18.144Z,72.59
2022-09-26T21:49:21.046Z,72.67
2022-09-26T21:54:32.167Z,72.97
2022-09-26T21:59:38.928Z,73.51
2022-09-26T22:04:41.787Z,73.91
2022-09-26T22:09:44.711Z,74.31
2022-09-26T22:14:47.589Z,74.35
2022-09-26T22:19:51.426Z,74.39
2022-09-26T22:24:54.288Z,73.84
2022-09-26T22:29:57.154Z,73.90
2022-09-26T22:35:00.023Z,73.92
2022-09-26T22:40:04.105Z,74.21
2022-09-26T22:45:07.649Z,74.49
2022-09-26T22:50:10.690Z,75.11
2022-09-26T22:55:13.709Z,75.44
2022-09-26T23:00:17.070Z,75.42
2022-09-26T23:05:20.160Z,75.21
2022-09-26T23:10:23.018Z,75.33
2022-09-26T23:15:26.079Z,75.70
2022-09-26T23:20:28.979Z,76.14
2022-09-26T23:25:31.868Z,76.31
2022-09-26T23:30:34.725Z,76.15
2022-09-26T23:35:37.720Z,76.41
2022-09-26T23:40:41.168Z,76.19
2022-09-26T23:45:44.267Z,76.20
2022-09-26T23:50:47.551Z,76.17
2022-09-26T23:55:52.842Z,75.98
